Time;durP1;ratioP1;P1;durP2;ratioP2;P2;SDS_P1;SDS_P2;PMS_P1;PMS_P2;Temp;Humidity;BMP_temperature;BMP_pressure;BME280_temperature;BME280_humidity;BME280_pressure;Samples;Min_cycle;Max_cycle;Signal;HPM_P1;HPM_P2
2022/11/26 00:00:59;;;;;;;3.33;2.30;;;;;;;19.11;59.42;101351.25;5091453;28;20162;-64
2022/11/26 00:03:24;;;;;;;3.63;2.10;;;;;;;19.16;58.97;101356.72;5085394;28;20198;-65
2022/11/26 00:05:52;;;;;;;5.10;2.33;;;;;;;19.09;59.37;101352.78;5071231;28;20230;-65
2022/11/26 00:08:43;;;;;;;4.33;2.33;;;;;;;19.11;59.43;101362.69;5053636;28;20167;-65
2022/11/26 00:11:10;;;;;;;3.40;2.17;;;;;;;19.10;59.80;101369.63;5067913;28;20438;-65
2022/11/26 00:13:36;;;;;;;3.90;2.30;;;;;;;19.14;59.20;101378.31;5053510;28;20409;-65
2022/11/26 00:16:01;;;;;;;3.60;2.20;;;;;;;19.12;59.33;101378.66;5071118;28;20409;-65
2022/11/26 00:18:27;;;;;;;5.10;2.30;;;;;;;19.11;59.44;101374.16;5071069;28;20206;-65
2022/11/26 00:20:55;;;;;;;3.40;2.30;;;;;;;19.12;59.55;101372.94;5071004;28;20159;-65
2022/11/26 00:23:25;;;;;;;5.00;2.30;;;;;;;19.08;59.41;101380.59;5069893;28;20187;-65
2022/11/26 00:25:52;;;;;;;3.93;2.60;;;;;;;19.11;59.42;101384.78;5071137;28;20465;-65
2022/11/26 00:28:34;;;;;;;5.30;2.53;;;;;;;19.12;59.33;101392.97;5052926;28;20457;-65
2022/11/26 00:31:01;;;;;;;4.20;2.50;;;;;;;19.08;59.47;101397.78;5071058;28;20477;-65
2022/11/26 00:33:27;;;;;;;3.43;2.20;;;;;;;19.11;59.28;101394.19;5053051;28;20405;-65
2022/11/26 00:36:26;;;;;;;5.70;2.50;;;;;;;19.09;59.25;101398.59;5071562;28;20489;-65
2022/11/26 00:38:54;;;;;;;5.30;2.87;;;;;;;19.06;59.46;101408.72;5085766;28;20432;-65
2022/11/26 00:41:21;;;;;;;4.70;2.50;;;;;;;19.05;59.52;101401.34;5073046;28;20411;-65
2022/11/26 00:43:47;;;;;;;5.20;2.47;;;;;;;19.11;59.24;101407.69;5073359;28;20756;-65
2022/11/26 00:46:13;;;;;;;7.23;2.53;;;;;;;19.09;59.33;101405.16;5090677;28;20484;-65
2022/11/26 00:48:39;;;;;;;3.90;2.20;;;;;;;19.10;59.42;101412.56;5090429;28;20170;-65
2022/11/26 00:51:04;;;;;;;4.50;2.43;;;;;;;19.08;59.46;101414.09;5072412;28;20465;-65
2022/11/26 00:53:30;;;;;;;3.60;2.33;;;;;;;19.05;59.47;101415.66;5072961;28;20181;-65
2022/11/26 00:55:55;;;;;;;3.30;2.40;;;;;;;19.08;59.33;101420.69;5087403;28;20218;-65
2022/11/26 00:58:26;;;;;;;5.50;2.77;;;;;;;19.09;59.42;101430.94;5072481;28;20186;-65
2022/11/26 01:00:51;;;;;;;4.03;2.23;;;;;;;19.08;59.36;101429.25;5090639;28;20510;-65
2022/11/26 01:03:17;;;;;;;3.73;2.40;;;;;;;19.12;59.37;101435.91;5086030;28;20430;-65
2022/11/26 01:05:42;;;;;;;3.50;2.23;;;;;;;19.09;59.22;101439.50;5073081;28;20734;-65
2022/11/26 01:08:23;;;;;;;3.40;2.10;;;;;;;19.06;59.63;101447.97;5070175;28;20216;-65
2022/11/26 01:10:48;;;;;;;4.33;2.80;;;;;;;19.06;59.58;101451.66;5053483;28;20167;-65
2022/11/26 01:13:14;;;;;;;4.50;2.30;;;;;;;19.02;59.48;101449.88;5070631;28;20413;-65
2022/11/26 01:15:40;;;;;;;4.13;2.17;;;;;;;19.05;59.24;101450.00;5070546;28;20155;-64
2022/11/26 01:18:15;;;;;;;3.63;2.30;;;;;;;19.07;59.35;101458.22;5074014;28;20227;-65
2022/11/26 01:20:40;;;;;;;5.20;2.67;;;;;;;19.11;59.37;101465.75;5072745;28;20412;-65
2022/11/26 01:23:08;;;;;;;3.43;2.13;;;;;;;19.08;59.28;101469.34;5039365;28;20417;-65
2022/11/26 01:25:34;;;;;;;4.20;2.40;;;;;;;19.08;59.43;101475.06;5080308;28;20198;-65
2022/11/26 01:27:59;;;;;;;4.90;2.50;;;;;;;19.03;59.67;101471.59;5093763;28;20424;-65
2022/11/26 01:30:28;;;;;;;4.57;2.60;;;;;;;19.05;59.28;101478.63;5075952;28;20181;-65
2022/11/26 01:32:54;;;;;;;3.20;2.03;;;;;;;19.05;59.42;101480.63;5093142;28;20177;-65
2022/11/26 01:35:20;;;;;;;4.40;2.27;;;;;;;19.07;59.34;101489.72;5094600;28;20405;-65
2022/11/26 01:37:45;;;;;;;4.70;2.50;;;;;;;19.05;59.10;101490.06;5094665;28;20171;-65
2022/11/26 01:40:36;;;;;;;3.80;2.50;;;;;;;19.01;59.59;101496.88;5094416;28;20728;-65
2022/11/26 01:43:16;;;;;;;4.93;2.43;;;;;;;19.01;59.41;101505.47;5093840;28;20236;-65
2022/11/26 01:45:42;;;;;;;4.43;2.50;;;;;;;19.00;59.55;101509.50;5075767;28;20535;-65
2022/11/26 01:48:27;;;;;;;3.43;2.00;;;;;;;19.03;59.79;101508.78;5094147;28;20405;-64
2022/11/26 01:51:15;;;;;;;3.60;2.33;;;;;;;19.01;59.52;101511.19;5094303;28;20209;-64
2022/11/26 01:53:45;;;;;;;6.60;2.30;;;;;;;19.01;59.49;101508.31;5076066;28;20439;-65
2022/11/26 01:56:18;;;;;;;4.00;2.53;;;;;;;19.03;59.51;101517.38;5075611;28;20818;-65
2022/11/26 01:58:49;;;;;;;4.17;1.90;;;;;;;19.03;59.59;101515.38;5093842;28;20431;-65
2022/11/26 02:01:15;;;;;;;4.10;2.70;;;;;;;19.00;59.53;101510.34;5073034;28;20469;-65
2022/11/26 02:04:20;;;;;;;4.33;2.60;;;;;;;18.99;59.69;101517.25;5073278;28;20425;-65
2022/11/26 02:06:47;;;;;;;3.40;2.10;;;;;;;19.00;59.50;101521.78;5073540;28;20171;-65
2022/11/26 02:09:12;;;;;;;2.80;1.90;;;;;;;19.01;59.76;101516.91;5073642;28;20415;-65
2022/11/26 02:11:38;;;;;;;3.90;2.33;;;;;;;18.95;59.83;101516.28;5073455;28;20780;-65
2022/11/26 02:14:10;;;;;;;2.90;1.70;;;;;;;18.97;59.56;101510.22;5071932;28;20810;-65
2022/11/26 02:16:54;;;;;;;3.20;1.97;;;;;;;18.98;59.40;101517.59;5072074;28;20166;-65
2022/11/26 02:19:41;;;;;;;3.30;2.00;;;;;;;18.98;59.56;101526.19;5072099;28;20420;-65
2022/11/26 02:22:39;;;;;;;2.80;1.97;;;;;;;19.00;59.59;101536.09;5073136;28;20421;-65
2022/11/26 02:25:17;;;;;;;3.90;1.97;;;;;;;18.95;59.75;101530.59;5072147;28;20816;-65
2022/11/26 02:27:42;;;;;;;3.70;1.90;;;;;;;18.97;59.36;101538.84;5082118;28;20443;-65
2022/11/26 02:30:14;;;;;;;3.63;2.13;;;;;;;18.98;59.53;101540.50;5093762;28;20397;-64
2022/11/26 02:32:50;;;;;;;2.77;2.00;;;;;;;18.97;59.52;101542.50;5093247;28;20207;-65
2022/11/26 02:35:32;;;;;;;4.87;2.20;;;;;;;18.95;59.68;101555.50;5075288;28;20506;-65
2022/11/26 02:38:05;;;;;;;3.20;2.10;;;;;;;18.94;59.45;101554.69;5059658;28;20456;-65
2022/11/26 02:40:30;;;;;;;4.67;2.13;;;;;;;18.95;59.65;101564.09;5075945;28;20401;-65
2022/11/26 02:42:56;;;;;;;3.83;2.07;;;;;;;18.95;59.53;101552.63;5092960;28;20397;-65
2022/11/26 02:45:23;;;;;;;3.70;2.27;;;;;;;18.98;59.39;101557.66;5075010;28;20293;-65
2022/11/26 02:47:51;;;;;;;3.73;2.20;;;;;;;18.97;59.31;101559.69;5090397;28;20629;-64
2022/11/26 02:50:35;;;;;;;10.10;2.70;;;;;;;18.94;59.46;101550.97;5038579;28;20409;-65
2022/11/26 02:53:00;;;;;;;3.50;2.10;;;;;;;18.92;59.68;101559.09;5040846;28;20508;-64
2022/11/26 02:55:30;;;;;;;3.30;2.20;;;;;;;18.96;59.54;101560.06;5090735;28;20456;-65
2022/11/26 02:57:55;;;;;;;3.07;2.00;;;;;;;18.92;59.53;101561.94;5074888;28;20182;-64
2022/11/26 03:00:21;;;;;;;3.13;2.33;;;;;;;18.91;59.73;101571.72;5074593;28;20443;-65
2022/11/26 03:02:59;;;;;;;2.83;2.03;;;;;;;18.94;59.51;101579.59;5073345;28;20187;-65
2022/11/26 03:05:24;;;;;;;3.30;2.00;;;;;;;18.92;59.49;101576.25;5092705;28;20206;-65
2022/11/26 03:07:50;;;;;;;3.53;2.13;;;;;;;18.91;59.80;101572.56;5069467;28;20486;-65
2022/11/26 03:10:19;;;;;;;3.30;2.00;;;;;;;18.93;59.61;101580.78;5071299;28;20646;-65
2022/11/26 03:12:44;;;;;;;2.70;1.90;;;;;;;18.92;59.64;101577.06;5072369;28;20410;-65
2022/11/26 03:15:10;;;;;;;4.33;2.20;;;;;;;18.92;59.58;101576.25;5072523;28;20408;-65
2022/11/26 03:17:35;;;;;;;4.30;2.60;;;;;;;18.91;59.97;101572.56;5070930;28;20254;-65
2022/11/26 03:20:02;;;;;;;3.07;1.93;;;;;;;18.89;59.56;101574.09;5074788;28;20171;-65
2022/11/26 03:22:28;;;;;;;2.70;2.00;;;;;;;18.91;59.57;101578.28;5072468;28;20257;-64
2022/11/26 03:24:53;;;;;;;3.90;2.27;;;;;;;18.89;59.68;101562.66;5072326;28;20476;-65
2022/11/26 03:27:19;;;;;;;3.10;2.20;;;;;;;18.87;59.70;101567.91;5078077;28;20807;-65
2022/11/26 03:29:44;;;;;;;3.33;2.17;;;;;;;18.92;59.68;101564.81;5092230;28;20158;-64
2022/11/26 03:32:10;;;;;;;3.50;1.77;;;;;;;18.88;59.76;101564.69;5092191;28;20533;-65
2022/11/26 03:34:35;;;;;;;3.20;1.90;;;;;;;18.87;59.48;101557.28;5092166;28;20177;-65
2022/11/26 03:37:01;;;;;;;4.23;2.27;;;;;;;18.88;59.62;101558.13;5092030;28;20182;-65
2022/11/26 03:39:26;;;;;;;4.13;2.37;;;;;;;18.86;59.52;101564.19;5091090;28;20167;-65
2022/11/26 03:41:51;;;;;;;3.50;2.37;;;;;;;18.87;59.68;101563.00;5092096;28;20611;-64
2022/11/26 03:44:17;;;;;;;4.33;2.20;;;;;;;18.85;59.65;101571.09;5091964;28;20171;-65
2022/11/26 03:46:42;;;;;;;3.23;1.80;;;;;;;18.87;59.77;101574.44;5091626;28;20190;-65
2022/11/26 03:49:08;;;;;;;5.20;2.47;;;;;;;18.87;59.95;101563.00;5091321;28;20178;-65
2022/11/26 03:51:33;;;;;;;4.30;2.53;;;;;;;18.88;59.67;101564.69;5091984;28;20178;-65
2022/11/26 03:53:59;;;;;;;4.37;2.00;;;;;;;18.88;59.55;101558.97;5091953;28;20163;-65
2022/11/26 03:56:24;;;;;;;2.83;1.90;;;;;;;18.85;59.75;101568.25;5073549;28;20255;-64
2022/11/26 03:58:49;;;;;;;3.10;1.87;;;;;;;18.90;59.26;101561.44;5091471;28;20186;-65
2022/11/26 04:01:15;;;;;;;3.53;2.07;;;;;;;18.86;59.68;101552.75;5091438;28;20182;-65
2022/11/26 04:03:40;;;;;;;4.30;2.17;;;;;;;18.88;59.64;101558.13;5090680;28;20166;-64
2022/11/26 04:06:06;;;;;;;4.00;1.90;;;;;;;18.89;59.43;101562.66;5091264;28;20198;-64
2022/11/26 04:08:31;;;;;;;3.90;2.50;;;;;;;18.87;59.52;101563.00;5090420;28;20162;-64
2022/11/26 04:10:57;;;;;;;3.37;2.23;;;;;;;18.86;59.60;101558.47;5090016;28;20178;-64
2022/11/26 04:13:22;;;;;;;2.47;1.80;;;;;;;18.86;59.46;101558.47;5089590;28;20220;-65
2022/11/26 04:15:48;;;;;;;3.43;2.10;;;;;;;18.86;59.66;101564.19;5090179;28;20171;-64
2022/11/26 04:18:13;;;;;;;3.60;2.20;;;;;;;18.84;59.56;101572.31;5090515;28;20170;-64
2022/11/26 04:20:39;;;;;;;3.70;1.93;;;;;;;18.84;59.72;101580.88;5072422;28;21036;-64
2022/11/26 04:23:04;;;;;;;3.20;2.07;;;;;;;18.85;59.71;101579.69;5090656;28;20166;-65
2022/11/26 04:25:30;;;;;;;2.70;1.70;;;;;;;18.85;59.56;101582.56;5090876;28;20224;-64
2022/11/26 04:27:55;;;;;;;4.70;2.20;;;;;;;18.84;59.67;101591.47;5091020;28;20190;-65
2022/11/26 04:30:21;;;;;;;2.90;1.70;;;;;;;18.85;59.35;101585.41;5091320;28;20942;-64
2022/11/26 04:32:46;;;;;;;3.53;2.43;;;;;;;18.83;59.51;101587.81;5091029;28;20186;-65
2022/11/26 04:35:11;;;;;;;4.00;2.10;;;;;;;18.86;59.46;101583.41;5091020;28;20691;-64
2022/11/26 04:37:37;;;;;;;2.63;1.57;;;;;;;18.83;59.65;101578.38;5091037;28;20665;-64
2022/11/26 04:40:03;;;;;;;2.90;1.90;;;;;;;18.83;59.67;101573.50;5091031;28;20205;-65
2022/11/26 04:42:28;;;;;;;3.03;2.20;;;;;;;18.86;59.49;101583.41;5090408;28;20173;-64
2022/11/26 04:44:53;;;;;;;2.90;1.80;;;;;;;18.83;59.61;101584.94;5089431;28;20202;-64
2022/11/26 04:47:19;;;;;;;3.17;2.17;;;;;;;18.85;59.58;101587.44;5089184;28;20173;-65
2022/11/26 04:49:44;;;;;;;2.60;1.80;;;;;;;18.88;59.58;101592.47;5089831;28;20159;-65
2022/11/26 04:52:10;;;;;;;2.83;2.00;;;;;;;18.86;59.52;101598.53;5089907;28;20193;-65
2022/11/26 04:54:35;;;;;;;4.00;2.10;;;;;;;18.81;59.57;101603.66;5089730;28;20232;-64
2022/11/26 04:57:01;;;;;;;4.23;1.97;;;;;;;18.84;59.20;101597.19;5085730;28;20218;-64
2022/11/26 04:59:26;;;;;;;3.77;2.23;;;;;;;18.83;59.61;101606.97;5072847;28;20627;-65
2022/11/26 05:01:52;;;;;;;4.00;2.10;;;;;;;18.84;59.42;101612.34;5090910;28;20162;-64
2022/11/26 05:04:17;;;;;;;3.50;1.90;;;;;;;18.86;59.76;101606.28;5090782;28;20198;-64
2022/11/26 05:06:43;;;;;;;3.03;2.07;;;;;;;18.84;59.52;101620.09;5090894;28;20210;-65
2022/11/26 05:09:08;;;;;;;2.93;1.80;;;;;;;18.85;59.38;101616.88;5090817;28;20163;-65
2022/11/26 05:11:33;;;;;;;3.30;2.13;;;;;;;18.84;59.56;101631.53;5087665;28;20219;-65
2022/11/26 05:13:59;;;;;;;2.73;1.80;;;;;;;18.84;59.62;101631.53;5072731;28;20182;-65
2022/11/26 05:16:24;;;;;;;3.97;2.07;;;;;;;18.84;59.71;101632.38;5090678;28;20158;-65
2022/11/26 05:18:50;;;;;;;4.93;2.73;;;;;;;18.84;59.61;101632.38;5072662;28;20174;-64
2022/11/26 05:21:15;;;;;;;3.13;2.03;;;;;;;18.83;59.63;101632.72;5087643;28;20189;-65
2022/11/26 05:23:40;;;;;;;2.73;1.80;;;;;;;18.83;59.83;101639.31;5090587;28;20166;-65
2022/11/26 05:26:06;;;;;;;3.27;1.80;;;;;;;18.89;59.42;101634.19;5090504;28;20194;-65
2022/11/26 05:28:31;;;;;;;3.67;2.00;;;;;;;18.88;59.27;101644.81;5090605;28;20499;-65
2022/11/26 05:31:00;;;;;;;2.47;1.57;;;;;;;18.85;59.30;101645.50;5090688;28;20712;-65
2022/11/26 05:33:26;;;;;;;3.10;1.93;;;;;;;18.82;59.43;101646.19;5090723;28;20163;-64
2022/11/26 05:35:51;;;;;;;2.80;1.93;;;;;;;18.85;59.39;101645.50;5090525;28;20413;-65
2022/11/26 05:38:17;;;;;;;3.77;2.13;;;;;;;18.86;59.40;101649.22;5090671;28;20175;-64
2022/11/26 05:40:42;;;;;;;4.13;2.30;;;;;;;18.87;59.29;101653.75;5090531;28;20178;-65
2022/11/26 05:43:07;;;;;;;2.63;1.83;;;;;;;18.84;59.62;101655.28;5090616;28;20193;-65
2022/11/26 05:45:33;;;;;;;3.60;1.80;;;;;;;18.86;59.42;101670.06;5090264;28;20649;-64
2022/11/26 05:47:59;;;;;;;3.30;1.77;;;;;;;18.88;59.35;101676.28;5090577;28;20178;-64
2022/11/26 05:50:24;;;;;;;2.90;1.90;;;;;;;18.88;59.40;101679.16;5090744;28;20625;-64
2022/11/26 05:52:50;;;;;;;3.07;1.77;;;;;;;18.87;59.42;101682.34;5072622;28;20832;-64
2022/11/26 05:55:15;;;;;;;3.00;1.83;;;;;;;18.85;59.54;101685.56;5089712;28;20218;-64
2022/11/26 05:57:41;;;;;;;3.87;1.97;;;;;;;18.86;59.42;101692.13;5091367;28;20190;-64
2022/11/26 06:00:07;;;;;;;2.93;1.87;;;;;;;18.89;59.45;101689.41;5090479;28;20253;-64
2022/11/26 06:02:32;;;;;;;2.90;1.63;;;;;;;18.87;59.34;101688.91;5092213;28;20163;-64
2022/11/26 06:04:58;;;;;;;3.03;2.10;;;;;;;18.87;59.45;101697.47;5074982;28;20476;-65
2022/11/26 06:07:23;;;;;;;2.93;1.80;;;;;;;18.86;59.25;101703.59;5073902;28;20164;-64
2022/11/26 06:09:49;;;;;;;2.63;1.67;;;;;;;18.89;59.47;101709.44;5072510;28;20178;-64
2022/11/26 06:12:14;;;;;;;2.67;1.87;;;;;;;18.86;59.42;101710.13;5073526;28;20167;-64
2022/11/26 06:14:39;;;;;;;2.43;1.60;;;;;;;18.85;59.46;101710.47;5072078;28;20167;-65
2022/11/26 06:17:05;;;;;;;2.87;1.80;;;;;;;18.89;59.31;101714.31;5073690;28;20171;-65
2022/11/26 06:19:30;;;;;;;4.67;1.90;;;;;;;18.93;59.29;101718.16;5073467;28;20186;-64
2022/11/26 06:21:56;;;;;;;2.93;1.77;;;;;;;18.88;59.41;101719.22;5073291;28;20182;-64
2022/11/26 06:24:21;;;;;;;5.87;2.50;;;;;;;18.89;59.35;101720.03;5072183;28;20184;-65
2022/11/26 06:26:47;;;;;;;3.23;1.77;;;;;;;18.87;59.34;101720.38;5074932;28;20199;-64
2022/11/26 06:29:12;;;;;;;3.13;1.90;;;;;;;18.90;59.25;101728.28;5075286;28;20594;-65
2022/11/26 06:31:38;;;;;;;4.03;2.00;;;;;;;18.90;59.23;101722.56;5093541;28;20673;-65
2022/11/26 06:34:03;;;;;;;3.77;1.93;;;;;;;18.90;59.30;101721.69;5093452;28;20181;-65
2022/11/26 06:36:28;;;;;;;3.00;2.10;;;;;;;18.91;59.24;101721.34;5093187;28;20161;-65
2022/11/26 06:38:54;;;;;;;3.93;1.97;;;;;;;18.90;59.43;101719.69;5090266;28;20175;-65
2022/11/26 06:41:19;;;;;;;2.60;1.70;;;;;;;18.89;59.25;101720.03;5074883;28;20171;-64
2022/11/26 06:43:45;;;;;;;3.23;1.70;;;;;;;18.88;59.24;101722.06;5093284;28;20178;-65
2022/11/26 06:46:10;;;;;;;3.20;1.90;;;;;;;18.94;59.33;101728.41;5093009;28;20263;-64
2022/11/26 06:48:36;;;;;;;3.30;1.83;;;;;;;18.90;59.24;101724.56;5074555;28;20236;-65
2022/11/26 06:51:05;;;;;;;2.47;1.67;;;;;;;18.92;59.31;101727.94;5092494;28;20186;-65
2022/11/26 06:53:31;;;;;;;3.80;1.87;;;;;;;18.91;59.22;101729.94;5093128;28;20227;-64
2022/11/26 06:56:01;;;;;;;3.73;2.20;;;;;;;18.90;59.15;101739.72;5074710;28;20456;-65
2022/11/26 06:58:26;;;;;;;2.73;1.83;;;;;;;18.90;59.36;101738.88;5089751;28;20227;-64
2022/11/26 07:00:51;;;;;;;2.60;1.80;;;;;;;18.90;59.15;101736.00;5083563;28;20823;-64
2022/11/26 07:03:17;;;;;;;2.83;1.80;;;;;;;18.91;59.13;101735.66;5103798;28;20237;-64
2022/11/26 07:05:42;;;;;;;3.40;1.63;;;;;;;18.96;58.92;101740.38;5072440;28;20264;-64
2022/11/26 07:08:08;;;;;;;2.53;1.87;;;;;;;18.95;59.22;101741.53;5070842;28;20174;-65
2022/11/26 07:10:33;;;;;;;4.20;2.30;;;;;;;18.92;59.09;101737.34;5069705;28;20186;-64
2022/11/26 07:12:59;;;;;;;4.00;1.90;;;;;;;18.93;59.17;101743.91;5069751;28;20167;-65
2022/11/26 07:15:25;;;;;;;3.03;1.70;;;;;;;18.92;59.22;101751.66;5086369;28;20589;-64
2022/11/26 07:17:50;;;;;;;4.90;1.83;;;;;;;18.93;59.25;101752.50;5092739;28;20174;-65
2022/11/26 07:20:16;;;;;;;3.20;1.57;;;;;;;18.91;59.29;101761.41;5073030;28;20797;-65
2022/11/26 07:22:41;;;;;;;2.60;1.60;;;;;;;18.90;59.22;101754.03;5090624;28;20245;-64
2022/11/26 07:25:07;;;;;;;3.27;1.87;;;;;;;18.91;59.58;101752.03;5082686;28;20210;-65
2022/11/26 07:27:32;;;;;;;3.97;1.97;;;;;;;18.95;59.20;101758.69;5074006;28;20183;-65
2022/11/26 07:29:58;;;;;;;4.67;2.20;;;;;;;18.90;59.29;101762.63;5073833;28;20614;-64
2022/11/26 07:32:23;;;;;;;4.13;2.07;;;;;;;18.90;59.32;101756.88;5092356;28;20616;-64
2022/11/26 07:34:49;;;;;;;4.20;1.70;;;;;;;18.91;59.28;101761.41;5092455;28;20166;-64
2022/11/26 07:37:15;;;;;;;2.97;1.70;;;;;;;18.92;59.23;101765.94;5073832;28;20672;-65
2022/11/26 07:39:41;;;;;;;3.07;1.70;;;;;;;18.95;59.25;101771.00;5092007;28;20170;-64
2022/11/26 07:42:06;;;;;;;4.10;1.87;;;;;;;18.96;59.08;101769.78;5091929;28;20428;-65
2022/11/26 07:44:31;;;;;;;3.30;1.80;;;;;;;18.98;59.11;101769.47;5091982;28;20634;-65
2022/11/26 07:46:57;;;;;;;2.87;1.60;;;;;;;18.95;59.05;101764.41;5091871;28;20206;-65
2022/11/26 07:49:22;;;;;;;3.23;1.67;;;;;;;18.96;59.02;101768.97;5073735;28;20185;-65
2022/11/26 07:51:48;;;;;;;2.37;1.67;;;;;;;18.96;58.96;101778.38;5073259;28;20947;-65
2022/11/26 07:54:13;;;;;;;3.70;2.00;;;;;;;18.94;59.20;101777.91;5073436;28;20645;-64
2022/11/26 07:56:38;;;;;;;2.90;1.80;;;;;;;18.93;59.15;101779.09;5079378;28;20222;-65
2022/11/26 07:59:04;;;;;;;3.33;1.70;;;;;;;18.95;59.28;101776.72;5091608;28;20178;-65
2022/11/26 08:01:29;;;;;;;3.53;1.80;;;;;;;18.95;59.20;101776.72;5091438;28;20198;-65
2022/11/26 08:03:55;;;;;;;4.70;1.83;;;;;;;18.93;59.28;101779.09;5083953;28;20183;-64
2022/11/26 08:06:22;;;;;;;3.40;1.93;;;;;;;18.91;59.37;101778.59;5071132;28;20273;-65
2022/11/26 08:08:48;;;;;;;2.60;1.53;;;;;;;18.92;59.03;101788.84;5088400;28;20234;-65
2022/11/26 08:11:24;;;;;;;3.63;1.80;;;;;;;18.93;59.32;101796.28;5070522;28;20439;-65
2022/11/26 08:13:58;;;;;;;2.80;1.50;;;;;;;18.96;59.23;101789.84;5075167;28;20639;-64
2022/11/26 08:16:23;;;;;;;2.27;1.70;;;;;;;18.97;59.22;101787.81;5088313;28;20486;-65
2022/11/26 08:18:53;;;;;;;4.03;1.73;;;;;;;18.98;59.12;101796.06;5077054;28;20907;-64
2022/11/26 08:21:19;;;;;;;4.73;2.20;;;;;;;18.98;59.14;101800.94;5055703;28;20187;-65
2022/11/26 08:23:44;;;;;;;2.87;1.70;;;;;;;18.95;59.20;101802.47;5077046;28;20853;-64
2022/11/26 08:26:12;;;;;;;3.23;1.80;;;;;;;18.95;59.18;101805.34;5089120;28;20202;-64
2022/11/26 08:28:37;;;;;;;3.10;1.77;;;;;;;18.95;59.28;101804.47;5083852;28;20186;-65
2022/11/26 08:31:04;;;;;;;3.23;1.70;;;;;;;18.95;59.18;101796.75;5075146;28;20537;-64
2022/11/26 08:33:29;;;;;;;3.40;1.80;;;;;;;18.98;59.00;101804.66;5071013;28;20193;-64
2022/11/26 08:35:55;;;;;;;2.60;1.50;;;;;;;18.98;58.84;101804.66;5070711;28;20433;-65
2022/11/26 08:38:20;;;;;;;2.83;1.60;;;;;;;19.00;59.20;101808.00;5052555;28;20531;-65
2022/11/26 08:40:46;;;;;;;3.93;1.50;;;;;;;18.97;59.43;101805.81;5087657;28;20190;-64
2022/11/26 08:43:11;;;;;;;3.10;1.53;;;;;;;18.98;59.03;101810.38;5088762;28;20170;-64
2022/11/26 08:45:37;;;;;;;2.73;1.67;;;;;;;18.97;59.04;101814.41;5080301;28;20219;-65
2022/11/26 08:48:02;;;;;;;2.90;1.70;;;;;;;18.94;59.08;101815.13;5078702;28;20231;-65
2022/11/26 08:50:28;;;;;;;2.83;1.47;;;;;;;18.95;59.33;101813.91;5072935;28;20182;-65
2022/11/26 08:52:53;;;;;;;2.60;1.57;;;;;;;18.96;59.18;101809.88;5072914;28;20664;-65
2022/11/26 08:55:18;;;;;;;3.43;1.47;;;;;;;18.95;59.15;101818.78;5090294;28;20225;-65
2022/11/26 08:57:45;;;;;;;2.93;1.90;;;;;;;18.99;59.05;101819.78;5086104;28;20198;-65
2022/11/26 09:00:11;;;;;;;2.40;1.40;;;;;;;18.99;59.02;101811.19;5070550;28;20320;-64
2022/11/26 09:02:36;;;;;;;2.60;1.87;;;;;;;18.94;59.23;101815.13;5081273;28;20428;-65
2022/11/26 09:05:02;;;;;;;2.43;1.57;;;;;;;18.98;59.13;101816.09;5082353;28;20198;-65
2022/11/26 09:07:28;;;;;;;3.93;1.60;;;;;;;18.99;59.07;101817.78;5079659;28;20552;-65
2022/11/26 09:09:53;;;;;;;3.70;1.50;;;;;;;18.96;59.15;101807.00;5058964;28;20185;-65
2022/11/26 09:12:18;;;;;;;3.20;1.80;;;;;;;18.97;59.06;101813.59;5084181;28;20879;-64
2022/11/26 09:14:44;;;;;;;3.87;2.00;;;;;;;19.00;59.20;101821.44;5069851;28;20187;-65
2022/11/26 09:17:09;;;;;;;3.10;1.70;;;;;;;19.01;58.99;101831.75;5071702;28;20179;-65
2022/11/26 09:19:35;;;;;;;2.70;1.30;;;;;;;18.99;59.03;101831.22;5051598;28;20578;-65
2022/11/26 09:22:00;;;;;;;2.63;1.47;;;;;;;19.01;59.26;101832.56;5080722;28;20641;-65
2022/11/26 09:24:26;;;;;;;2.93;1.37;;;;;;;18.96;59.17;101827.03;5076845;28;20228;-65
2022/11/26 09:26:52;;;;;;;3.27;1.70;;;;;;;18.97;59.03;101837.28;5073354;28;20211;-65
2022/11/26 09:29:18;;;;;;;3.00;1.60;;;;;;;18.99;59.24;101828.38;5080369;28;20202;-65
2022/11/26 09:31:44;;;;;;;3.33;1.50;;;;;;;18.97;59.08;101827.88;5056517;28;20289;-65
2022/11/26 09:34:10;;;;;;;2.57;1.37;;;;;;;18.97;59.32;101836.47;5078045;28;20512;-65
2022/11/26 09:36:35;;;;;;;3.40;1.80;;;;;;;18.97;59.11;101827.88;5074541;28;20271;-65
2022/11/26 09:39:00;;;;;;;4.57;1.53;;;;;;;19.00;59.37;101828.03;5075378;28;20186;-64
2022/11/26 09:41:33;;;;;;;2.50;1.50;;;;;;;19.01;58.94;101829.69;5082594;28;20609;-65
2022/11/26 09:44:21;;;;;;;2.90;1.60;;;;;;;18.99;59.20;101826.34;5093787;28;20214;-65
2022/11/26 09:46:58;;;;;;;5.03;1.67;;;;;;;19.00;59.03;101825.16;5078955;28;21063;-64
2022/11/26 09:49:24;;;;;;;2.40;1.80;;;;;;;18.99;59.38;101823.50;5068980;28;20429;-65
2022/11/26 09:51:51;;;;;;;2.63;1.43;;;;;;;18.93;59.18;101822.03;5043125;28;20431;-65
2022/11/26 09:54:19;;;;;;;2.60;1.60;;;;;;;18.91;59.31;101823.56;5077027;28;20268;-65
2022/11/26 09:56:44;;;;;;;3.13;1.90;;;;;;;18.92;59.42;101823.19;5067972;28;20511;-65
2022/11/26 09:59:14;;;;;;;3.23;1.90;;;;;;;18.98;59.15;101826.69;5069447;28;20424;-65
2022/11/26 10:01:41;;;;;;;3.13;1.50;;;;;;;19.00;58.54;101824.31;5067000;28;20178;-65
2022/11/26 10:04:07;;;;;;;2.50;1.57;;;;;;;19.01;58.98;101815.38;5079972;28;20452;-65
2022/11/26 10:06:39;;;;;;;3.10;1.40;;;;;;;19.01;59.07;101823.97;5061256;28;20546;-65
2022/11/26 10:09:26;;;;;;;2.50;1.30;;;;;;;19.00;59.09;101822.31;5082404;28;20907;-65
2022/11/26 10:12:01;;;;;;;3.30;1.73;;;;;;;19.01;59.13;101817.44;5075869;28;20469;-65
2022/11/26 10:15:04;;;;;;;2.67;1.77;;;;;;;18.98;59.30;101816.09;5065885;28;20790;-65
2022/11/26 10:17:50;;;;;;;2.43;1.53;;;;;;;19.00;59.08;101825.16;5077199;28;20411;-65
2022/11/26 10:20:41;;;;;;;2.40;1.57;;;;;;;18.98;59.33;101830.41;5076769;28;20427;-64
2022/11/26 10:23:12;;;;;;;2.53;1.23;;;;;;;18.97;59.37;101834.44;5077392;28;20554;-64
2022/11/26 10:25:44;;;;;;;2.50;1.43;;;;;;;19.02;58.98;101831.38;5058340;28;20946;-65
2022/11/26 10:28:20;;;;;;;4.17;1.80;;;;;;;18.98;59.16;101829.56;5062386;28;20419;-65
2022/11/26 10:30:46;;;;;;;3.07;1.73;;;;;;;18.98;59.28;101818.97;5059543;28;20469;-65
2022/11/26 10:33:14;;;;;;;3.10;1.70;;;;;;;18.99;59.45;101822.66;5037025;28;20429;-65
2022/11/26 10:35:39;;;;;;;2.70;1.90;;;;;;;19.00;59.06;101819.44;5073167;28;20527;-65
2022/11/26 10:38:05;;;;;;;2.03;1.20;;;;;;;19.01;59.20;101823.16;5077314;28;20429;-65
2022/11/26 10:40:30;;;;;;;4.00;1.53;;;;;;;19.02;59.15;101822.78;5081688;28;20265;-65
2022/11/26 10:43:20;;;;;;;2.70;1.90;;;;;;;18.99;59.02;101820.63;5089000;28;20179;-65
2022/11/26 10:45:55;;;;;;;2.67;1.80;;;;;;;19.00;59.18;101818.59;5066791;28;20245;-65
2022/11/26 10:48:30;;;;;;;3.63;1.87;;;;;;;19.00;59.23;101812.88;5068490;28;20419;-65
2022/11/26 10:51:24;;;;;;;2.67;1.67;;;;;;;18.98;59.23;101815.25;5085791;28;20781;-65
2022/11/26 10:53:49;;;;;;;2.53;1.50;;;;;;;19.03;58.99;101815.91;5072920;28;20902;-65
2022/11/26 10:56:23;;;;;;;3.03;1.70;;;;;;;18.98;59.25;101815.25;5059558;28;20550;-65
2022/11/26 10:58:49;;;;;;;2.30;1.43;;;;;;;18.98;59.18;101813.25;5081050;28;20240;-65
2022/11/26 11:01:14;;;;;;;2.20;1.30;;;;;;;18.99;59.20;101811.19;5083664;28;20429;-65
2022/11/26 11:03:51;;;;;;;3.30;1.73;;;;;;;19.02;59.18;101804.78;5078391;28;20424;-64
2022/11/26 11:06:19;;;;;;;3.27;1.70;;;;;;;18.99;59.17;101802.59;5065167;28;20228;-65
2022/11/26 11:08:49;;;;;;;4.37;1.90;;;;;;;19.01;59.07;101808.84;5081138;28;20429;-65
2022/11/26 11:11:28;;;;;;;2.80;1.50;;;;;;;19.01;59.26;101798.22;5077701;28;20457;-65
2022/11/26 11:13:53;;;;;;;2.70;1.57;;;;;;;19.00;59.03;101801.41;5079243;28;20926;-65
2022/11/26 11:16:29;;;;;;;4.67;1.70;;;;;;;19.02;59.05;101794.16;5074110;28;20417;-64
2022/11/26 11:18:59;;;;;;;3.20;1.70;;;;;;;19.04;59.11;101791.81;5039720;28;20183;-65
2022/11/26 11:21:31;;;;;;;3.83;1.83;;;;;;;19.01;59.09;101783.91;5054824;28;20435;-65
2022/11/26 11:24:14;;;;;;;2.47;1.40;;;;;;;19.01;59.01;101772.47;5074052;28;20413;-65
2022/11/26 11:26:47;;;;;;;2.50;1.40;;;;;;;19.01;59.25;101775.31;5073169;28;20475;-65
2022/11/26 11:29:31;;;;;;;2.70;1.43;;;;;;;19.05;58.82;101782.03;5073559;28;20500;-65